sensor_id;sensor_type;location;lat;lon;timestamp;pressure;altitude;pressure_sealevel;temperature;humidity
30949;BME280;17637;51.984;21.208;2023-08-30T00:00:25;99062.03;;;19.07;89.36
30949;BME280;17637;51.984;21.208;2023-08-30T00:02:57;99034.75;;;18.80;89.77
30949;BME280;17637;51.984;21.208;2023-08-30T00:05:29;99055.41;;;18.83;90.58
30949;BME280;17637;51.984;21.208;2023-08-30T00:08:01;99070.50;;;18.96;90.26
30949;BME280;17637;51.984;21.208;2023-08-30T00:10:33;99085.28;;;18.97;90.73
30949;BME280;17637;51.984;21.208;2023-08-30T00:13:05;99045.81;;;18.62;90.79
30949;BME280;17637;51.984;21.208;2023-08-30T00:15:37;99093.66;;;18.79;91.37
30949;BME280;17637;51.984;21.208;2023-08-30T00:18:09;99073.56;;;18.64;92.11
30949;BME280;17637;51.984;21.208;2023-08-30T00:20:42;99087.59;;;18.78;90.96
30949;BME280;17637;51.984;21.208;2023-08-30T00:23:14;99078.28;;;18.76;90.70
30949;BME280;17637;51.984;21.208;2023-08-30T00:25:46;99100.25;;;18.90;90.95
30949;BME280;17637;51.984;21.208;2023-08-30T00:28:18;99070.41;;;18.82;90.32
30949;BME280;17637;51.984;21.208;2023-08-30T00:30:54;99081.81;;;18.90;89.93
30949;BME280;17637;51.984;21.208;2023-08-30T00:33:26;99115.94;;;19.11;89.63
30949;BME280;17637;51.984;21.208;2023-08-30T00:35:58;99114.50;;;19.09;89.81
30949;BME280;17637;51.984;21.208;2023-08-30T00:38:33;99110.44;;;19.06;89.99
30949;BME280;17637;51.984;21.208;2023-08-30T00:41:05;99099.38;;;18.89;90.17
30949;BME280;17637;51.984;21.208;2023-08-30T00:43:37;99111.31;;;18.85;89.88
30949;BME280;17637;51.984;21.208;2023-08-30T00:46:09;99137.59;;;19.13;89.09
30949;BME280;17637;51.984;21.208;2023-08-30T00:48:41;99125.03;;;18.80;90.35
30949;BME280;17637;51.984;21.208;2023-08-30T00:51:13;99149.09;;;19.06;90.12
30949;BME280;17637;51.984;21.208;2023-08-30T00:53:46;99183.00;;;19.22;88.79
30949;BME280;17637;51.984;21.208;2023-08-30T00:56:18;99161.72;;;19.17;88.12
30949;BME280;17637;51.984;21.208;2023-08-30T00:58:51;99193.94;;;19.19;89.32
30949;BME280;17637;51.984;21.208;2023-08-30T01:01:23;99200.59;;;19.15;89.31
30949;BME280;17637;51.984;21.208;2023-08-30T01:03:55;99164.47;;;19.02;88.94
30949;BME280;17637;51.984;21.208;2023-08-30T01:06:27;99198.41;;;19.25;89.18
30949;BME280;17637;51.984;21.208;2023-08-30T01:08:59;99166.25;;;18.95;89.51
30949;BME280;17637;51.984;21.208;2023-08-30T01:11:36;99169.56;;;19.04;89.53
30949;BME280;17637;51.984;21.208;2023-08-30T01:14:25;99165.53;;;19.08;89.76
30949;BME280;17637;51.984;21.208;2023-08-30T01:17:00;99167.97;;;19.09;88.83
30949;BME280;17637;51.984;21.208;2023-08-30T01:22:17;99210.34;;;19.21;89.31
30949;BME280;17637;51.984;21.208;2023-08-30T01:25:34;99204.84;;;19.16;90.22
30949;BME280;17637;51.984;21.208;2023-08-30T01:28:10;99197.94;;;19.15;89.86
30949;BME280;17637;51.984;21.208;2023-08-30T01:30:44;99197.03;;;19.29;89.29
30949;BME280;17637;51.984;21.208;2023-08-30T01:33:17;99194.97;;;19.25;88.32
30949;BME280;17637;51.984;21.208;2023-08-30T01:35:52;99182.50;;;18.98;89.74
30949;BME280;17637;51.984;21.208;2023-08-30T01:38:26;99169.63;;;18.89;89.72
30949;BME280;17637;51.984;21.208;2023-08-30T01:40:59;99186.94;;;18.98;89.00
30949;BME280;17637;51.984;21.208;2023-08-30T01:43:32;99170.09;;;18.92;89.20
30949;BME280;17637;51.984;21.208;2023-08-30T01:46:05;99170.09;;;18.92;89.17
30949;BME280;17637;51.984;21.208;2023-08-30T01:48:38;99114.22;;;18.62;88.74
30949;BME280;17637;51.984;21.208;2023-08-30T01:51:10;99145.22;;;18.66;89.55
30949;BME280;17637;51.984;21.208;2023-08-30T01:53:44;99161.47;;;18.77;89.68
30949;BME280;17637;51.984;21.208;2023-08-30T01:56:17;99122.78;;;18.42;90.31
30949;BME280;17637;51.984;21.208;2023-08-30T01:58:49;99101.59;;;18.50;89.98
30949;BME280;17637;51.984;21.208;2023-08-30T02:01:21;99104.03;;;18.52;88.90
30949;BME280;17637;51.984;21.208;2023-08-30T02:03:53;99117.28;;;18.37;89.88
30949;BME280;17637;51.984;21.208;2023-08-30T02:06:29;99117.56;;;18.49;89.27
30949;BME280;17637;51.984;21.208;2023-08-30T02:09:18;99125.09;;;18.30;89.78
30949;BME280;17637;51.984;21.208;2023-08-30T02:11:53;99132.50;;;18.20;90.42
30949;BME280;17637;51.984;21.208;2023-08-30T02:14:28;99137.66;;;18.28;90.60
30949;BME280;17637;51.984;21.208;2023-08-30T02:17:01;99131.25;;;18.38;89.85
30949;BME280;17637;51.984;21.208;2023-08-30T02:19:34;99113.94;;;18.22;90.16
30949;BME280;17637;51.984;21.208;2023-08-30T02:22:06;99117.88;;;18.11;89.90
30949;BME280;17637;51.984;21.208;2023-08-30T02:24:38;99092.59;;;18.10;89.62
30949;BME280;17637;51.984;21.208;2023-08-30T02:27:10;99099.28;;;18.12;89.56
30949;BME280;17637;51.984;21.208;2023-08-30T02:29:42;99097.13;;;18.23;89.29
30949;BME280;17637;51.984;21.208;2023-08-30T02:32:14;99111.56;;;18.27;89.06
30949;BME280;17637;51.984;21.208;2023-08-30T02:34:51;99111.97;;;18.30;89.89
30949;BME280;17637;51.984;21.208;2023-08-30T02:37:23;99105.22;;;18.21;89.15
30949;BME280;17637;51.984;21.208;2023-08-30T02:39:55;99111.00;;;18.10;89.92
30949;BME280;17637;51.984;21.208;2023-08-30T02:42:27;99060.25;;;17.87;89.83
30949;BME280;17637;51.984;21.208;2023-08-30T02:44:59;99102.94;;;18.11;89.39
30949;BME280;17637;51.984;21.208;2023-08-30T02:47:31;99062.59;;;17.97;88.79
30949;BME280;17637;51.984;21.208;2023-08-30T02:50:03;99100.16;;;18.19;89.28
30949;BME280;17637;51.984;21.208;2023-08-30T02:52:35;99117.59;;;18.27;89.06
30949;BME280;17637;51.984;21.208;2023-08-30T02:55:07;99111.44;;;18.42;88.68
30949;BME280;17637;51.984;21.208;2023-08-30T02:57:39;99071.97;;;18.07;88.09
30949;BME280;17637;51.984;21.208;2023-08-30T03:00:12;99074.34;;;18.01;88.58
30949;BME280;17637;51.984;21.208;2023-08-30T03:02:44;99082.66;;;18.05;88.09
30949;BME280;17637;51.984;21.208;2023-08-30T03:05:17;99086.78;;;18.14;88.05
30949;BME280;17637;51.984;21.208;2023-08-30T03:07:49;99088.41;;;18.15;88.13
30949;BME280;17637;51.984;21.208;2023-08-30T03:10:23;99025.41;;;17.79;87.38
30949;BME280;17637;51.984;21.208;2023-08-30T03:12:55;99077.00;;;18.08;87.81
30949;BME280;17637;51.984;21.208;2023-08-30T03:15:26;99062.59;;;17.97;87.99
30949;BME280;17637;51.984;21.208;2023-08-30T03:17:59;99041.16;;;17.79;88.28
30949;BME280;17637;51.984;21.208;2023-08-30T03:20:31;99022.03;;;17.63;87.80
30949;BME280;17637;51.984;21.208;2023-08-30T03:23:03;99036.25;;;17.69;87.86
30949;BME280;17637;51.984;21.208;2023-08-30T03:25:35;99056.06;;;17.71;87.55
30949;BME280;17637;51.984;21.208;2023-08-30T03:28:07;99082.75;;;17.75;88.41
30949;BME280;17637;51.984;21.208;2023-08-30T03:30:39;99055.38;;;17.63;88.77
30949;BME280;17637;51.984;21.208;2023-08-30T03:33:11;99067.31;;;17.65;88.08
30949;BME280;17637;51.984;21.208;2023-08-30T03:35:44;99076.22;;;17.64;88.65
30949;BME280;17637;51.984;21.208;2023-08-30T03:38:16;99081.66;;;17.63;89.17
30949;BME280;17637;51.984;21.208;2023-08-30T03:40:53;99038.50;;;17.50;88.82
30949;BME280;17637;51.984;21.208;2023-08-30T03:43:25;99076.25;;;17.71;88.56
30949;BME280;17637;51.984;21.208;2023-08-30T03:45:58;99055.88;;;17.51;88.85
30949;BME280;17637;51.984;21.208;2023-08-30T03:48:30;99064.19;;;17.55;88.97
30949;BME280;17637;51.984;21.208;2023-08-30T03:51:02;99043.63;;;17.37;89.14
30949;BME280;17637;51.984;21.208;2023-08-30T03:53:34;99079.81;;;17.63;89.47
30949;BME280;17637;51.984;21.208;2023-08-30T03:56:06;99068.75;;;17.46;89.83
30949;BME280;17637;51.984;21.208;2023-08-30T03:58:39;99070.00;;;17.50;90.03
30949;BME280;17637;51.984;21.208;2023-08-30T04:01:11;99084.84;;;17.80;89.36
30949;BME280;17637;51.984;21.208;2023-08-30T04:03:43;99062.81;;;17.59;89.18
30949;BME280;17637;51.984;21.208;2023-08-30T04:06:15;99031.00;;;17.47;89.09
30949;BME280;17637;51.984;21.208;2023-08-30T04:08:47;99035.66;;;17.52;88.66
30949;BME280;17637;51.984;21.208;2023-08-30T04:11:18;99042.06;;;17.64;88.35
30949;BME280;17637;51.984;21.208;2023-08-30T04:13:50;99006.78;;;17.52;88.11
30949;BME280;17637;51.984;21.208;2023-08-30T04:16:24;99048.69;;;17.82;88.00
30949;BME280;17637;51.984;21.208;2023-08-30T04:18:55;99062.69;;;17.89;87.84
30949;BME280;17637;51.984;21.208;2023-08-30T04:21:27;99072.75;;;17.85;89.39
30949;BME280;17637;51.984;21.208;2023-08-30T04:23:59;99074.47;;;17.93;88.65
30949;BME280;17637;51.984;21.208;2023-08-30T04:26:31;99072.72;;;18.00;88.18
30949;BME280;17637;51.984;21.208;2023-08-30T04:29:03;99073.63;;;17.93;88.97
30949;BME280;17637;51.984;21.208;2023-08-30T04:31:35;99086.28;;;18.04;88.29
30949;BME280;17637;51.984;21.208;2023-08-30T04:34:07;99076.97;;;18.01;87.92
30949;BME280;17637;51.984;21.208;2023-08-30T04:36:39;99093.03;;;18.13;87.97
30949;BME280;17637;51.984;21.208;2023-08-30T04:39:12;99055.44;;;17.91;88.17
30949;BME280;17637;51.984;21.208;2023-08-30T04:41:45;99092.84;;;18.15;87.64
30949;BME280;17637;51.984;21.208;2023-08-30T04:44:17;99065.94;;;18.13;86.97
30949;BME280;17637;51.984;21.208;2023-08-30T04:46:50;99067.34;;;18.09;87.28
30949;BME280;17637;51.984;21.208;2023-08-30T04:49:24;99083.19;;;18.22;86.31
30949;BME280;17637;51.984;21.208;2023-08-30T04:52:00;99070.19;;;18.14;85.51
30949;BME280;17637;51.984;21.208;2023-08-30T04:54:33;99101.03;;;18.27;85.47
30949;BME280;17637;51.984;21.208;2023-08-30T04:57:04;99083.38;;;18.20;85.39
30949;BME280;17637;51.984;21.208;2023-08-30T04:59:36;99121.97;;;18.42;87.46
30949;BME280;17637;51.984;21.208;2023-08-30T05:02:09;99144.06;;;18.47;87.75
30949;BME280;17637;51.984;21.208;2023-08-30T05:04:41;99150.31;;;18.46;87.05
30949;BME280;17637;51.984;21.208;2023-08-30T05:07:13;99136.09;;;18.41;86.14
30949;BME280;17637;51.984;21.208;2023-08-30T05:09:45;99143.50;;;18.30;87.90
30949;BME280;17637;51.984;21.208;2023-08-30T05:12:17;99135.34;;;18.47;84.57
30949;BME280;17637;51.984;21.208;2023-08-30T05:14:49;99133.47;;;18.41;84.74
30949;BME280;17637;51.984;21.208;2023-08-30T05:17:21;99137.94;;;18.40;84.58
30949;BME280;17637;51.984;21.208;2023-08-30T05:19:53;99159.91;;;18.54;84.28
30949;BME280;17637;51.984;21.208;2023-08-30T05:22:25;99159.63;;;18.42;84.55
30949;BME280;17637;51.984;21.208;2023-08-30T05:24:57;99154.19;;;18.50;84.75
30949;BME280;17637;51.984;21.208;2023-08-30T05:27:29;99165.91;;;18.48;84.70
30949;BME280;17637;51.984;21.208;2023-08-30T05:30:00;99143.50;;;18.30;84.99
30949;BME280;17637;51.984;21.208;2023-08-30T05:32:32;99189.97;;;18.45;84.72
30949;BME280;17637;51.984;21.208;2023-08-30T05:35:05;99185.72;;;18.44;85.00
30949;BME280;17637;51.984;21.208;2023-08-30T05:37:37;99162.94;;;18.29;85.93
30949;BME280;17637;51.984;21.208;2023-08-30T05:40:09;99184.88;;;18.43;85.83
30949;BME280;17637;51.984;21.208;2023-08-30T05:42:41;99173.63;;;18.28;86.24
30949;BME280;17637;51.984;21.208;2023-08-30T05:45:13;99165.88;;;18.19;86.19
30949;BME280;17637;51.984;21.208;2023-08-30T05:47:45;99145.06;;;17.96;87.23
30949;BME280;17637;51.984;21.208;2023-08-30T05:50:17;99156.00;;;18.00;86.65
30949;BME280;17637;51.984;21.208;2023-08-30T05:52:48;99164.94;;;18.06;86.96
30949;BME280;17637;51.984;21.208;2023-08-30T05:55:20;99157.19;;;17.97;87.27
30949;BME280;17637;51.984;21.208;2023-08-30T05:57:52;99163.75;;;18.08;87.06
30949;BME280;17637;51.984;21.208;2023-08-30T06:00:24;99171.28;;;18.11;87.10
30949;BME280;17637;51.984;21.208;2023-08-30T06:02:57;99144.53;;;17.86;87.53
30949;BME280;17637;51.984;21.208;2023-08-30T06:05:29;99121.66;;;17.65;88.22
30949;BME280;17637;51.984;21.208;2023-08-30T06:08:01;99157.91;;;17.91;87.14
30949;BME280;17637;51.984;21.208;2023-08-30T06:10:33;99132.06;;;17.73;87.06
30949;BME280;17637;51.984;21.208;2023-08-30T06:13:05;99170.00;;;18.07;86.89
30949;BME280;17637;51.984;21.208;2023-08-30T06:15:37;99150.84;;;17.92;86.99
30949;BME280;17637;51.984;21.208;2023-08-30T06:18:10;99141.69;;;17.87;87.14
30949;BME280;17637;51.984;21.208;2023-08-30T06:20:43;99141.66;;;17.81;87.58
30949;BME280;17637;51.984;21.208;2023-08-30T06:23:18;99174.47;;;18.07;87.33
30949;BME280;17637;51.984;21.208;2023-08-30T06:25:55;99136.56;;;17.79;86.95
30949;BME280;17637;51.984;21.208;2023-08-30T06:28:27;99139.00;;;17.81;86.84
30949;BME280;17637;51.984;21.208;2023-08-30T06:30:59;99136.25;;;17.89;86.62
30949;BME280;17637;51.984;21.208;2023-08-30T06:33:31;99152.94;;;17.96;86.36
30949;BME280;17637;51.984;21.208;2023-08-30T06:36:03;99167.59;;;17.91;87.10
30949;BME280;17637;51.984;21.208;2023-08-30T06:38:35;99179.56;;;17.93;87.61
30949;BME280;17637;51.984;21.208;2023-08-30T06:41:07;99187.75;;;17.83;87.67
30949;BME280;17637;51.984;21.208;2023-08-30T06:43:39;99165.84;;;17.76;87.68
30949;BME280;17637;51.984;21.208;2023-08-30T06:46:11;99151.44;;;17.72;87.86
30949;BME280;17637;51.984;21.208;2023-08-30T06:48:43;99155.66;;;17.66;88.09
30949;BME280;17637;51.984;21.208;2023-08-30T06:51:14;99134.28;;;17.54;88.67
30949;BME280;17637;51.984;21.208;2023-08-30T06:53:46;99145.03;;;17.60;88.50
30949;BME280;17637;51.984;21.208;2023-08-30T06:56:18;99171.72;;;17.78;88.98
30949;BME280;17637;51.984;21.208;2023-08-30T06:58:50;99144.25;;;17.59;89.32
30949;BME280;17637;51.984;21.208;2023-08-30T07:01:22;99144.50;;;17.64;88.67
30949;BME280;17637;51.984;21.208;2023-08-30T07:03:54;99146.94;;;17.66;88.72
30949;BME280;17637;51.984;21.208;2023-08-30T07:06:26;99135.72;;;17.57;89.03
30949;BME280;17637;51.984;21.208;2023-08-30T07:09:01;99120.59;;;17.59;88.79
30949;BME280;17637;51.984;21.208;2023-08-30T07:11:35;99172.78;;;17.99;89.06
30949;BME280;17637;51.984;21.208;2023-08-30T07:14:07;99163.97;;;17.92;89.02
30949;BME280;17637;51.984;21.208;2023-08-30T07:16:38;99143.34;;;17.88;89.18
30949;BME280;17637;51.984;21.208;2023-08-30T07:19:10;99150.25;;;17.75;90.61
30949;BME280;17637;51.984;21.208;2023-08-30T07:21:42;99151.50;;;17.79;89.14
30949;BME280;17637;51.984;21.208;2023-08-30T07:24:14;99168.81;;;18.10;88.72
30949;BME280;17637;51.984;21.208;2023-08-30T07:26:46;99152.63;;;18.06;88.98
30949;BME280;17637;51.984;21.208;2023-08-30T07:29:18;99169.47;;;18.12;88.79
30949;BME280;17637;51.984;21.208;2023-08-30T07:31:50;99137.13;;;17.75;89.74
30949;BME280;17637;51.984;21.208;2023-08-30T07:34:25;99153.47;;;17.92;88.77
30949;BME280;17637;51.984;21.208;2023-08-30T07:36:57;99151.31;;;17.95;88.40
30949;BME280;17637;51.984;21.208;2023-08-30T07:39:29;99153.19;;;18.01;88.32
30949;BME280;17637;51.984;21.208;2023-08-30T07:42:01;99161.13;;;18.08;88.35
30949;BME280;17637;51.984;21.208;2023-08-30T07:44:32;99152.31;;;17.94;88.92
30949;BME280;17637;51.984;21.208;2023-08-30T07:47:04;99149.03;;;17.92;88.94
30949;BME280;17637;51.984;21.208;2023-08-30T07:49:36;99154.56;;;17.97;88.62
30949;BME280;17637;51.984;21.208;2023-08-30T07:52:08;99153.00;;;18.03;88.96
30949;BME280;17637;51.984;21.208;2023-08-30T07:54:42;99136.63;;;17.86;89.01
30949;BME280;17637;51.984;21.208;2023-08-30T07:57:14;99135.06;;;17.92;89.16
30949;BME280;17637;51.984;21.208;2023-08-30T07:59:46;99140.41;;;17.98;89.86
30949;BME280;17637;51.984;21.208;2023-08-30T08:02:18;99165.94;;;18.04;89.06
30949;BME280;17637;51.984;21.208;2023-08-30T08:04:50;99138.81;;;17.82;89.16
30949;BME280;17637;51.984;21.208;2023-08-30T08:07:23;99158.56;;;17.93;89.20
30949;BME280;17637;51.984;21.208;2023-08-30T08:09:59;99174.72;;;18.12;89.23
30949;BME280;17637;51.984;21.208;2023-08-30T08:12:32;99172.47;;;18.09;88.48
30949;BME280;17637;51.984;21.208;2023-08-30T08:15:04;99147.03;;;17.94;89.23
30949;BME280;17637;51.984;21.208;2023-08-30T08:17:37;99155.03;;;17.86;89.50
30949;BME280;17637;51.984;21.208;2023-08-30T08:20:09;99167.50;;;17.99;89.22
30949;BME280;17637;51.984;21.208;2023-08-30T08:22:41;99156.28;;;17.90;89.34
30949;BME280;17637;51.984;21.208;2023-08-30T08:25:13;99158.72;;;17.92;89.19
30949;BME280;17637;51.984;21.208;2023-08-30T08:27:45;99150.38;;;17.88;89.88
30949;BME280;17637;51.984;21.208;2023-08-30T08:30:17;99150.25;;;17.75;90.16
30949;BME280;17637;51.984;21.208;2023-08-30T08:32:49;99143.63;;;17.79;89.96
30949;BME280;17637;51.984;21.208;2023-08-30T08:35:21;99134.25;;;17.69;89.29
30949;BME280;17637;51.984;21.208;2023-08-30T08:37:53;99152.41;;;17.86;89.55
30949;BME280;17637;51.984;21.208;2023-08-30T08:40:28;99159.38;;;17.94;89.08
30949;BME280;17637;51.984;21.208;2023-08-30T08:43:14;99135.56;;;17.80;89.39
30949;BME280;17637;51.984;21.208;2023-08-30T08:45:47;99137.78;;;17.98;89.16
30949;BME280;17637;51.984;21.208;2023-08-30T08:48:21;99095.53;;;17.57;90.90
30949;BME280;17637;51.984;21.208;2023-08-30T08:50:54;99132.19;;;17.86;89.61
30949;BME280;17637;51.984;21.208;2023-08-30T08:53:26;99155.47;;;17.90;89.50
30949;BME280;17637;51.984;21.208;2023-08-30T08:56:00;99148.69;;;17.95;88.95
30949;BME280;17637;51.984;21.208;2023-08-30T08:58:36;99162.53;;;17.89;90.82
30949;BME280;17637;51.984;21.208;2023-08-30T09:01:09;99141.06;;;17.85;90.30
30949;BME280;17637;51.984;21.208;2023-08-30T09:03:55;99170.53;;;17.81;89.64
30949;BME280;17637;51.984;21.208;2023-08-30T09:06:28;99176.78;;;17.80;90.24
30949;BME280;17637;51.984;21.208;2023-08-30T09:09:04;99126.03;;;17.58;90.44
30949;BME280;17637;51.984;21.208;2023-08-30T09:11:36;99171.94;;;17.62;90.54
30949;BME280;17637;51.984;21.208;2023-08-30T09:14:21;99150.66;;;17.71;90.91
30949;BME280;17637;51.984;21.208;2023-08-30T09:16:55;99155.53;;;17.75;90.87
30949;BME280;17637;51.984;21.208;2023-08-30T09:19:27;99140.50;;;17.68;90.34
30949;BME280;17637;51.984;21.208;2023-08-30T09:22:00;99166.75;;;17.68;90.21
30949;BME280;17637;51.984;21.208;2023-08-30T09:24:38;99135.38;;;17.60;90.62
30949;BME280;17637;51.984;21.208;2023-08-30T09:27:11;99141.03;;;17.42;91.02
30949;BME280;17637;51.984;21.208;2023-08-30T09:29:43;99145.53;;;17.48;91.70
30949;BME280;17637;51.984;21.208;2023-08-30T09:32:21;99157.44;;;17.66;91.35
30949;BME280;17637;51.984;21.208;2023-08-30T09:34:53;99097.34;;;17.19;91.75
30949;BME280;17637;51.984;21.208;2023-08-30T09:37:25;99162.44;;;17.61;91.18
30949;BME280;17637;51.984;21.208;2023-08-30T09:39:58;99161.31;;;17.70;90.76
30949;BME280;17637;51.984;21.208;2023-08-30T09:42:30;99097.31;;;17.34;90.51
30949;BME280;17637;51.984;21.208;2023-08-30T09:45:04;99154.38;;;17.62;90.03
30949;BME280;17637;51.984;21.208;2023-08-30T09:47:36;99156.47;;;17.52;90.01
30949;BME280;17637;51.984;21.208;2023-08-30T09:50:12;99148.13;;;17.63;89.56
30949;BME280;17637;51.984;21.208;2023-08-30T09:52:47;99156.47;;;17.52;90.24
30949;BME280;17637;51.984;21.208;2023-08-30T09:55:21;99166.72;;;17.47;90.69
30949;BME280;17637;51.984;21.208;2023-08-30T09:57:54;99166.63;;;17.55;90.91
30949;BME280;17637;51.984;21.208;2023-08-30T10:00:27;99170.50;;;17.59;90.68
30949;BME280;17637;51.984;21.208;2023-08-30T10:02:59;99165.78;;;17.69;91.33
30949;BME280;17637;51.984;21.208;2023-08-30T10:05:51;99172.41;;;17.65;90.88
30949;BME280;17637;51.984;21.208;2023-08-30T10:08:25;99148.75;;;17.65;89.89
30949;BME280;17637;51.984;21.208;2023-08-30T10:11:01;99170.59;;;17.87;89.52
30949;BME280;17637;51.984;21.208;2023-08-30T10:13:35;99134.00;;;17.64;89.83
30949;BME280;17637;51.984;21.208;2023-08-30T10:16:12;99158.84;;;17.83;89.78
30949;BME280;17637;51.984;21.208;2023-08-30T10:18:57;99122.88;;;17.84;89.40
30949;BME280;17637;51.984;21.208;2023-08-30T10:21:36;99133.91;;;18.44;88.55
30949;BME280;17637;51.984;21.208;2023-08-30T10:24:12;99135.09;;;18.42;88.37
30949;BME280;17637;51.984;21.208;2023-08-30T10:27:03;99148.41;;;18.90;88.51
30949;BME280;17637;51.984;21.208;2023-08-30T10:29:37;99155.16;;;18.71;86.08
30949;BME280;17637;51.984;21.208;2023-08-30T10:32:10;99155.81;;;18.80;85.88
30949;BME280;17637;51.984;21.208;2023-08-30T10:34:48;99137.63;;;18.85;84.49
30949;BME280;17637;51.984;21.208;2023-08-30T10:37:26;99153.47;;;18.63;85.91
30949;BME280;17637;51.984;21.208;2023-08-30T10:40:01;99145.94;;;18.89;86.41
30949;BME280;17637;51.984;21.208;2023-08-30T10:42:37;99146.88;;;18.74;84.86
30949;BME280;17637;51.984;21.208;2023-08-30T10:45:09;99165.91;;;19.05;84.83
30949;BME280;17637;51.984;21.208;2023-08-30T10:47:45;99160.56;;;18.91;85.05
30949;BME280;17637;51.984;21.208;2023-08-30T10:50:17;99161.03;;;19.01;84.73
30949;BME280;17637;51.984;21.208;2023-08-30T10:52:55;99146.09;;;19.09;85.42
30949;BME280;17637;51.984;21.208;2023-08-30T10:55:27;99166.97;;;19.10;83.42
30949;BME280;17637;51.984;21.208;2023-08-30T10:58:01;99161.19;;;18.93;84.05
30949;BME280;17637;51.984;21.208;2023-08-30T11:00:34;99131.63;;;18.63;84.79
30949;BME280;17637;51.984;21.208;2023-08-30T11:03:10;99164.84;;;18.92;84.35
30949;BME280;17637;51.984;21.208;2023-08-30T11:05:43;99156.53;;;18.67;84.49
30949;BME280;17637;51.984;21.208;2023-08-30T11:08:15;99152.19;;;18.81;84.48
30949;BME280;17637;51.984;21.208;2023-08-30T11:10:48;99158.47;;;18.86;84.26
30949;BME280;17637;51.984;21.208;2023-08-30T11:13:20;99177.72;;;18.87;84.60
30949;BME280;17637;51.984;21.208;2023-08-30T11:15:53;99149.16;;;18.56;85.54
30949;BME280;17637;51.984;21.208;2023-08-30T11:18:25;99162.25;;;18.71;84.36
30949;BME280;17637;51.984;21.208;2023-08-30T11:21:02;99171.13;;;18.69;84.13
30949;BME280;17637;51.984;21.208;2023-08-30T11:23:34;99152.75;;;18.48;84.02
30949;BME280;17637;51.984;21.208;2023-08-30T11:26:07;99190.03;;;18.51;84.98
30949;BME280;17637;51.984;21.208;2023-08-30T11:28:42;99161.47;;;18.48;84.43
30949;BME280;17637;51.984;21.208;2023-08-30T11:31:24;99202.09;;;18.46;86.06
30949;BME280;17637;51.984;21.208;2023-08-30T11:34:00;99178.38;;;18.39;86.97
30949;BME280;17637;51.984;21.208;2023-08-30T11:36:35;99208.00;;;18.48;86.45
30949;BME280;17637;51.984;21.208;2023-08-30T11:39:08;99185.41;;;18.32;86.56
30949;BME280;17637;51.984;21.208;2023-08-30T11:41:42;99178.47;;;18.02;85.84
30949;BME280;17637;51.984;21.208;2023-08-30T11:44:14;99188.31;;;18.15;86.62
30949;BME280;17637;51.984;21.208;2023-08-30T11:46:48;99190.34;;;18.20;87.29
30949;BME280;17637;51.984;21.208;2023-08-30T11:49:21;99187.72;;;18.20;87.03
30949;BME280;17637;51.984;21.208;2023-08-30T11:51:54;99208.94;;;18.40;86.61
30949;BME280;17637;51.984;21.208;2023-08-30T11:54:28;99184.22;;;18.13;87.00
30949;BME280;17637;51.984;21.208;2023-08-30T11:57:00;99196.06;;;18.24;87.78
30949;BME280;17637;51.984;21.208;2023-08-30T11:59:34;99200.00;;;18.34;88.73
30949;BME280;17637;51.984;21.208;2023-08-30T12:02:07;99206.88;;;18.35;87.28
30949;BME280;17637;51.984;21.208;2023-08-30T12:04:43;99203.38;;;18.28;87.63
30949;BME280;17637;51.984;21.208;2023-08-30T12:07:26;99197.00;;;18.16;88.38
30949;BME280;17637;51.984;21.208;2023-08-30T12:12:37;99176.69;;;18.31;87.89
30949;BME280;17637;51.984;21.208;2023-08-30T12:15:10;99201.97;;;18.54;87.40
30949;BME280;17637;51.984;21.208;2023-08-30T12:17:43;99202.47;;;18.64;87.32
30949;BME280;17637;51.984;21.208;2023-08-30T12:20:18;99205.09;;;18.64;86.66
30949;BME280;17637;51.984;21.208;2023-08-30T12:22:52;99172.31;;;18.39;87.15
30949;BME280;17637;51.984;21.208;2023-08-30T12:25:25;99147.53;;;18.26;87.46
30949;BME280;17637;51.984;21.208;2023-08-30T12:27:57;99153.69;;;18.12;86.58
30949;BME280;17637;51.984;21.208;2023-08-30T12:30:29;99172.28;;;18.10;87.46
30949;BME280;17637;51.984;21.208;2023-08-30T12:33:01;99168.69;;;18.40;86.66
30949;BME280;17637;51.984;21.208;2023-08-30T12:35:35;99168.69;;;18.40;86.37
30949;BME280;17637;51.984;21.208;2023-08-30T12:38:07;99157.59;;;18.23;85.57
30949;BME280;17637;51.984;21.208;2023-08-30T12:40:41;99169.72;;;18.74;85.72
30949;BME280;17637;51.984;21.208;2023-08-30T12:43:14;99167.25;;;18.65;86.32
30949;BME280;17637;51.984;21.208;2023-08-30T12:45:47;99182.16;;;18.86;85.46
30949;BME280;17637;51.984;21.208;2023-08-30T12:48:19;99189.72;;;18.90;85.82
30949;BME280;17637;51.984;21.208;2023-08-30T12:50:51;99163.28;;;18.76;84.33
30949;BME280;17637;51.984;21.208;2023-08-30T12:53:23;99182.56;;;18.83;84.96
30949;BME280;17637;51.984;21.208;2023-08-30T12:55:55;99157.94;;;18.91;85.82
30949;BME280;17637;51.984;21.208;2023-08-30T12:58:27;99158.38;;;18.95;84.40
30949;BME280;17637;51.984;21.208;2023-08-30T13:00:59;99187.81;;;19.12;85.42
30949;BME280;17637;51.984;21.208;2023-08-30T13:03:31;99192.75;;;19.22;84.92
30949;BME280;17637;51.984;21.208;2023-08-30T13:06:03;99164.44;;;18.95;85.57
30949;BME280;17637;51.984;21.208;2023-08-30T13:08:35;99158.44;;;18.80;83.00
30949;BME280;17637;51.984;21.208;2023-08-30T13:11:07;99158.03;;;18.83;83.60
30949;BME280;17637;51.984;21.208;2023-08-30T13:13:39;99190.22;;;19.07;84.23
30949;BME280;17637;51.984;21.208;2023-08-30T13:16:11;99193.47;;;19.09;83.34
30949;BME280;17637;51.984;21.208;2023-08-30T13:18:43;99194.09;;;19.11;84.62
30949;BME280;17637;51.984;21.208;2023-08-30T13:21:15;99184.34;;;19.46;84.03
30949;BME280;17637;51.984;21.208;2023-08-30T13:23:52;99178.38;;;19.24;83.41
30949;BME280;17637;51.984;21.208;2023-08-30T13:26:23;99182.47;;;19.40;85.54